Carle Place, New York
Current Conditions -  °F | °C
As of 3:53 AM on Thursday 23 Oct 2014 (Local Time) from KFRG Reporting Station
Overcast Overcast  
Wind Chill: 52°   Ceiling: 1700
Heat Index: 52°   Visibility: 10mi
Dew Point: 47°   Wind: 26mph
Humidity: 83%   Direction: 20°NNE
Pressure: 29.66"   Gusts: 33mph
Location:  40.75°N, 73.62°W
Report Text: KFRG 230753Z AUTO 02023G29KT 10SM OVC017 11/08 A2966 RMK AO2 PK WND 03032/0729 SLP045 T01110083
Loading
Personal Weather Stations






























Interactive Weather Map
Tropical Storm Tracking
New forecast layout! Learn more

10-Day Weather Forecast

Advertisements
Track Severe Weather on mobile